Ana Sayfa
METAR-TAF:

METAR-TAF

Havaalanları :

Hermosillo, Meksika

Enlem: 29-04N, Boylam: 110-57W, yükseklik: 211 m

Güncel hava durumu gözlemi

Rapor saat 02:40 UTC de 7 saat ve 35 dakika önce yapıldı.
Rüzgar batı/güneybatıdan 4 kt
Sıcaklık 30°C
Nem 22%
Basınç 1007 hPa
Görüş mesafesi: 16.1 km
Açık gökyüzü

METAR: MMHO 070240Z 25004KT 10SM SKC 30/06 A2975 RMK SLP068 52001 911 HZY

Saat: 03:15 (10:15 UTC)

Tahmin

Rapor saat 04:25 UTC de 5 saat ve 50 dakika önce yapıldı.
Ayın 07'si saat 06 UTC'den ayın 08'si saat 06 UTC'ye kadar geçerli Tahmin
Rüzgar batı/güneybatıdan 5 kt
Görüş mesafesi: 10 km
Açık gökyüzü
Ayın 07'si saat 1800 UTC'den
Rüzgar batı/güneybatıdan 10 kt
Görüş mesafesi: 10 km
Açık gökyüzü
Ayın 08'si saat 0400 UTC'den
Rüzgar batı/güneybatıdan 5 kt
Görüş mesafesi: 10 km
Açık gökyüzü

TAF: MMHO 070425Z 0706/0806 25005KT P6SM SKC FM071800 24010KT P6SM SKC FM080400 24005KT P6SM SKC

4.000'den fazla havaalanı için hava durumu gözlemleri ve tahminleri (METAR ve TAF raporları).

Kullanılabilir istasyonlar harita üzerinde sarı ve kırmızı noktalarla gösterilir.

İstasyonun adını görmek için fareyi noktanın üzerinde gezdirin.

Sonrasında hava gözlem ve tahminlerini görmek için tıklayın.

Haritayı değiştirmek için: yaklaştırmak için siyah artı işaretli yeşil düğmeye ve uzaklaştırmak için de eksi işaretli düğmeye hızla tıklayın; bitişik haritalar için yeşil okları kullanın.


METAR-TAF: